sensor_id;sensor_type;location;lat;lon;timestamp;temperature;humidity
7542;DHT22;3812;50.006;8.230;2022-11-14T00:00:48;3.40;99.90
7542;DHT22;3812;50.006;8.230;2022-11-14T00:03:34;3.30;99.90
7542;DHT22;3812;50.006;8.230;2022-11-14T00:06:19;3.30;99.90
7542;DHT22;3812;50.006;8.230;2022-11-14T00:09:06;3.30;1.00
7542;DHT22;3812;50.006;8.230;2022-11-14T00:11:52;3.30;1.00
7542;DHT22;3812;50.006;8.230;2022-11-14T00:14:37;3.40;1.00
7542;DHT22;3812;50.006;8.230;2022-11-14T00:17:23;3.40;1.00
7542;DHT22;3812;50.006;8.230;2022-11-14T00:20:10;3.40;1.00
7542;DHT22;3812;50.006;8.230;2022-11-14T00:22:56;3.40;99.90
7542;DHT22;3812;50.006;8.230;2022-11-14T00:25:44;3.40;1.00
7542;DHT22;3812;50.006;8.230;2022-11-14T00:28:29;3.40;1.00
7542;DHT22;3812;50.006;8.230;2022-11-14T00:31:15;3.40;1.00
7542;DHT22;3812;50.006;8.230;2022-11-14T00:34:00;3.50;1.00
7542;DHT22;3812;50.006;8.230;2022-11-14T00:36:46;3.60;1.00
7542;DHT22;3812;50.006;8.230;2022-11-14T00:39:31;3.80;1.00
7542;DHT22;3812;50.006;8.230;2022-11-14T00:42:18;3.80;1.00
7542;DHT22;3812;50.006;8.230;2022-11-14T00:45:05;3.80;1.00
7542;DHT22;3812;50.006;8.230;2022-11-14T00:47:50;3.80;1.00
7542;DHT22;3812;50.006;8.230;2022-11-14T00:50:37;3.90;1.00
7542;DHT22;3812;50.006;8.230;2022-11-14T00:53:22;3.90;1.00
7542;DHT22;3812;50.006;8.230;2022-11-14T00:56:07;3.90;1.00
7542;DHT22;3812;50.006;8.230;2022-11-14T00:58:54;3.80;1.00
7542;DHT22;3812;50.006;8.230;2022-11-14T01:01:40;3.90;1.00
7542;DHT22;3812;50.006;8.230;2022-11-14T01:04:25;3.90;1.00
7542;DHT22;3812;50.006;8.230;2022-11-14T01:07:11;4.00;1.00
7542;DHT22;3812;50.006;8.230;2022-11-14T01:09:56;3.90;1.00
7542;DHT22;3812;50.006;8.230;2022-11-14T01:12:41;3.80;1.00
7542;DHT22;3812;50.006;8.230;2022-11-14T01:15:28;3.70;1.00
7542;DHT22;3812;50.006;8.230;2022-11-14T01:18:16;3.60;1.00
7542;DHT22;3812;50.006;8.230;2022-11-14T01:21:04;3.60;1.00
7542;DHT22;3812;50.006;8.230;2022-11-14T01:23:49;3.70;1.00
7542;DHT22;3812;50.006;8.230;2022-11-14T01:26:35;3.90;1.00
7542;DHT22;3812;50.006;8.230;2022-11-14T01:29:20;4.00;1.00
7542;DHT22;3812;50.006;8.230;2022-11-14T01:32:07;4.20;1.00
7542;DHT22;3812;50.006;8.230;2022-11-14T01:34:52;4.20;1.00
7542;DHT22;3812;50.006;8.230;2022-11-14T01:37:38;4.40;98.60
7542;DHT22;3812;50.006;8.230;2022-11-14T01:40:24;4.40;99.90
7542;DHT22;3812;50.006;8.230;2022-11-14T01:43:26;4.50;99.90
7542;DHT22;3812;50.006;8.230;2022-11-14T01:46:14;4.60;99.90
7542;DHT22;3812;50.006;8.230;2022-11-14T01:49:05;4.50;99.90
7542;DHT22;3812;50.006;8.230;2022-11-14T01:52:00;4.60;99.90
7542;DHT22;3812;50.006;8.230;2022-11-14T01:54:48;4.60;99.90
7542;DHT22;3812;50.006;8.230;2022-11-14T01:57:37;4.60;99.90
7542;DHT22;3812;50.006;8.230;2022-11-14T02:00:25;4.60;99.90
7542;DHT22;3812;50.006;8.230;2022-11-14T02:03:12;4.60;99.90
7542;DHT22;3812;50.006;8.230;2022-11-14T02:05:59;4.50;99.90
7542;DHT22;3812;50.006;8.230;2022-11-14T02:08:46;4.50;99.90
7542;DHT22;3812;50.006;8.230;2022-11-14T02:11:36;4.60;99.90
7542;DHT22;3812;50.006;8.230;2022-11-14T02:14:23;4.60;99.90
7542;DHT22;3812;50.006;8.230;2022-11-14T02:17:08;4.60;99.90
7542;DHT22;3812;50.006;8.230;2022-11-14T02:20:00;4.60;99.90
7542;DHT22;3812;50.006;8.230;2022-11-14T02:22:45;4.60;99.90
7542;DHT22;3812;50.006;8.230;2022-11-14T02:25:31;4.60;99.90
7542;DHT22;3812;50.006;8.230;2022-11-14T02:28:16;4.60;99.90
7542;DHT22;3812;50.006;8.230;2022-11-14T02:31:04;4.60;99.90
7542;DHT22;3812;50.006;8.230;2022-11-14T02:33:49;4.60;99.90
7542;DHT22;3812;50.006;8.230;2022-11-14T02:36:36;4.60;99.90
7542;DHT22;3812;50.006;8.230;2022-11-14T02:39:22;4.70;99.90
7542;DHT22;3812;50.006;8.230;2022-11-14T02:42:07;4.70;99.90
7542;DHT22;3812;50.006;8.230;2022-11-14T02:44:53;4.70;99.90
7542;DHT22;3812;50.006;8.230;2022-11-14T02:47:38;4.70;99.90
7542;DHT22;3812;50.006;8.230;2022-11-14T02:50:24;4.70;99.90
7542;DHT22;3812;50.006;8.230;2022-11-14T02:53:11;4.70;99.90
7542;DHT22;3812;50.006;8.230;2022-11-14T02:55:56;4.80;99.90
7542;DHT22;3812;50.006;8.230;2022-11-14T02:58:42;4.80;99.90
7542;DHT22;3812;50.006;8.230;2022-11-14T03:01:27;4.90;99.90
7542;DHT22;3812;50.006;8.230;2022-11-14T03:04:13;4.90;99.90
7542;DHT22;3812;50.006;8.230;2022-11-14T03:06:58;4.90;99.90
7542;DHT22;3812;50.006;8.230;2022-11-14T03:09:45;4.90;99.90
7542;DHT22;3812;50.006;8.230;2022-11-14T03:12:30;4.90;99.90
7542;DHT22;3812;50.006;8.230;2022-11-14T03:15:16;4.90;99.90
7542;DHT22;3812;50.006;8.230;2022-11-14T03:18:01;4.90;99.90
7542;DHT22;3812;50.006;8.230;2022-11-14T03:20:47;5.00;99.90
7542;DHT22;3812;50.006;8.230;2022-11-14T03:23:32;4.90;99.90
7542;DHT22;3812;50.006;8.230;2022-11-14T03:26:19;4.90;99.90
7542;DHT22;3812;50.006;8.230;2022-11-14T03:29:07;4.90;99.90
7542;DHT22;3812;50.006;8.230;2022-11-14T03:31:53;4.90;99.90
7542;DHT22;3812;50.006;8.230;2022-11-14T03:34:38;4.90;99.90
7542;DHT22;3812;50.006;8.230;2022-11-14T03:37:24;4.90;99.90
7542;DHT22;3812;50.006;8.230;2022-11-14T03:40:10;4.90;99.90
7542;DHT22;3812;50.006;8.230;2022-11-14T03:42:57;4.90;99.90
7542;DHT22;3812;50.006;8.230;2022-11-14T03:45:43;4.90;99.90
7542;DHT22;3812;50.006;8.230;2022-11-14T03:48:29;4.90;99.90
7542;DHT22;3812;50.006;8.230;2022-11-14T03:51:15;5.00;99.90
7542;DHT22;3812;50.006;8.230;2022-11-14T03:54:01;5.00;99.90
7542;DHT22;3812;50.006;8.230;2022-11-14T03:56:46;5.00;99.90
7542;DHT22;3812;50.006;8.230;2022-11-14T03:59:33;5.00;99.90
7542;DHT22;3812;50.006;8.230;2022-11-14T04:02:19;5.00;99.90
7542;DHT22;3812;50.006;8.230;2022-11-14T04:05:04;5.10;99.90
7542;DHT22;3812;50.006;8.230;2022-11-14T04:07:50;5.10;99.90
7542;DHT22;3812;50.006;8.230;2022-11-14T04:10:36;5.10;99.90
7542;DHT22;3812;50.006;8.230;2022-11-14T04:13:21;5.20;99.90
7542;DHT22;3812;50.006;8.230;2022-11-14T04:16:08;5.20;99.90
7542;DHT22;3812;50.006;8.230;2022-11-14T04:18:53;5.20;99.90
7542;DHT22;3812;50.006;8.230;2022-11-14T04:21:39;5.30;99.90
7542;DHT22;3812;50.006;8.230;2022-11-14T04:24:24;5.30;99.90
7542;DHT22;3812;50.006;8.230;2022-11-14T04:27:10;5.30;99.90
7542;DHT22;3812;50.006;8.230;2022-11-14T04:29:56;5.30;99.90
7542;DHT22;3812;50.006;8.230;2022-11-14T04:32:43;5.40;99.90
7542;DHT22;3812;50.006;8.230;2022-11-14T04:35:29;5.30;99.90
7542;DHT22;3812;50.006;8.230;2022-11-14T04:38:14;5.40;99.90
7542;DHT22;3812;50.006;8.230;2022-11-14T04:41:00;5.40;99.90
7542;DHT22;3812;50.006;8.230;2022-11-14T04:43:45;5.40;99.90
7542;DHT22;3812;50.006;8.230;2022-11-14T04:46:31;5.40;99.90
7542;DHT22;3812;50.006;8.230;2022-11-14T04:49:18;5.40;99.90
7542;DHT22;3812;50.006;8.230;2022-11-14T04:52:04;5.40;84.00
7542;DHT22;3812;50.006;8.230;2022-11-14T04:54:49;5.40;1.00
7542;DHT22;3812;50.006;8.230;2022-11-14T04:57:35;5.30;1.00
7542;DHT22;3812;50.006;8.230;2022-11-14T05:00:21;5.40;1.00
7542;DHT22;3812;50.006;8.230;2022-11-14T05:03:07;5.40;1.00
7542;DHT22;3812;50.006;8.230;2022-11-14T05:05:59;5.40;1.00
7542;DHT22;3812;50.006;8.230;2022-11-14T05:08:44;5.40;1.00
7542;DHT22;3812;50.006;8.230;2022-11-14T05:11:31;5.40;1.00
7542;DHT22;3812;50.006;8.230;2022-11-14T05:14:17;5.40;1.00
7542;DHT22;3812;50.006;8.230;2022-11-14T05:17:02;5.40;1.00
7542;DHT22;3812;50.006;8.230;2022-11-14T05:19:48;5.40;1.00
7542;DHT22;3812;50.006;8.230;2022-11-14T05:22:34;5.40;1.00
7542;DHT22;3812;50.006;8.230;2022-11-14T05:25:20;5.40;1.00
7542;DHT22;3812;50.006;8.230;2022-11-14T05:28:06;5.40;1.00
7542;DHT22;3812;50.006;8.230;2022-11-14T05:30:51;5.40;1.00
7542;DHT22;3812;50.006;8.230;2022-11-14T05:33:37;5.40;1.00
7542;DHT22;3812;50.006;8.230;2022-11-14T05:36:22;5.30;1.00
7542;DHT22;3812;50.006;8.230;2022-11-14T05:39:09;5.30;1.00
7542;DHT22;3812;50.006;8.230;2022-11-14T05:41:55;5.30;1.00
7542;DHT22;3812;50.006;8.230;2022-11-14T05:44:40;5.40;1.00
7542;DHT22;3812;50.006;8.230;2022-11-14T05:47:25;5.40;1.00
7542;DHT22;3812;50.006;8.230;2022-11-14T05:50:11;5.40;1.00
7542;DHT22;3812;50.006;8.230;2022-11-14T05:52:56;5.40;1.00
7542;DHT22;3812;50.006;8.230;2022-11-14T05:55:43;5.40;1.00
7542;DHT22;3812;50.006;8.230;2022-11-14T05:58:30;5.40;1.00
7542;DHT22;3812;50.006;8.230;2022-11-14T06:01:17;5.40;1.00
7542;DHT22;3812;50.006;8.230;2022-11-14T06:04:05;5.30;1.00
7542;DHT22;3812;50.006;8.230;2022-11-14T06:06:51;5.30;1.00
7542;DHT22;3812;50.006;8.230;2022-11-14T06:09:36;5.30;1.00
7542;DHT22;3812;50.006;8.230;2022-11-14T06:12:23;5.30;1.00
7542;DHT22;3812;50.006;8.230;2022-11-14T06:15:08;5.30;1.00
7542;DHT22;3812;50.006;8.230;2022-11-14T06:17:54;5.30;1.00
7542;DHT22;3812;50.006;8.230;2022-11-14T06:20:41;5.30;1.00
7542;DHT22;3812;50.006;8.230;2022-11-14T06:23:27;5.30;1.00
7542;DHT22;3812;50.006;8.230;2022-11-14T06:26:18;5.30;1.00
7542;DHT22;3812;50.006;8.230;2022-11-14T06:29:06;5.30;1.00
7542;DHT22;3812;50.006;8.230;2022-11-14T06:31:52;5.30;1.00
7542;DHT22;3812;50.006;8.230;2022-11-14T06:34:37;5.30;1.00
7542;DHT22;3812;50.006;8.230;2022-11-14T06:37:22;5.30;1.00
7542;DHT22;3812;50.006;8.230;2022-11-14T06:40:09;5.30;1.00
7542;DHT22;3812;50.006;8.230;2022-11-14T06:42:55;5.30;1.00
7542;DHT22;3812;50.006;8.230;2022-11-14T06:45:42;5.30;1.00
7542;DHT22;3812;50.006;8.230;2022-11-14T06:48:28;5.30;1.00
7542;DHT22;3812;50.006;8.230;2022-11-14T06:51:14;5.30;1.00
7542;DHT22;3812;50.006;8.230;2022-11-14T06:54:00;5.40;1.00
7542;DHT22;3812;50.006;8.230;2022-11-14T06:56:45;5.40;1.00
7542;DHT22;3812;50.006;8.230;2022-11-14T06:59:31;5.40;1.00
7542;DHT22;3812;50.006;8.230;2022-11-14T07:02:18;5.50;1.00
7542;DHT22;3812;50.006;8.230;2022-11-14T07:05:03;5.50;1.00
7542;DHT22;3812;50.006;8.230;2022-11-14T07:07:49;5.60;1.00
7542;DHT22;3812;50.006;8.230;2022-11-14T07:10:35;5.60;1.00
7542;DHT22;3812;50.006;8.230;2022-11-14T07:13:21;5.70;1.00
7542;DHT22;3812;50.006;8.230;2022-11-14T07:16:06;5.70;1.00
7542;DHT22;3812;50.006;8.230;2022-11-14T07:18:54;5.70;1.00
7542;DHT22;3812;50.006;8.230;2022-11-14T07:21:39;5.90;1.00
7542;DHT22;3812;50.006;8.230;2022-11-14T07:24:25;5.90;1.00
7542;DHT22;3812;50.006;8.230;2022-11-14T07:27:10;5.90;1.00
7542;DHT22;3812;50.006;8.230;2022-11-14T07:29:56;5.90;99.90
7542;DHT22;3812;50.006;8.230;2022-11-14T07:32:41;5.90;99.90
7542;DHT22;3812;50.006;8.230;2022-11-14T07:35:28;5.90;99.90
7542;DHT22;3812;50.006;8.230;2022-11-14T07:38:13;5.90;99.90
7542;DHT22;3812;50.006;8.230;2022-11-14T07:41:00;6.00;99.90
7542;DHT22;3812;50.006;8.230;2022-11-14T07:43:46;6.00;99.90
7542;DHT22;3812;50.006;8.230;2022-11-14T07:46:31;6.10;99.90
7542;DHT22;3812;50.006;8.230;2022-11-14T07:49:17;6.10;99.90
7542;DHT22;3812;50.006;8.230;2022-11-14T07:52:04;6.20;99.90
7542;DHT22;3812;50.006;8.230;2022-11-14T07:54:49;6.20;99.90
7542;DHT22;3812;50.006;8.230;2022-11-14T07:57:35;6.20;99.90
7542;DHT22;3812;50.006;8.230;2022-11-14T08:00:20;6.30;99.90
7542;DHT22;3812;50.006;8.230;2022-11-14T08:03:06;6.30;99.90
7542;DHT22;3812;50.006;8.230;2022-11-14T08:05:59;6.30;99.90
7542;DHT22;3812;50.006;8.230;2022-11-14T08:08:46;6.30;99.90
7542;DHT22;3812;50.006;8.230;2022-11-14T08:11:31;6.40;99.90
7542;DHT22;3812;50.006;8.230;2022-11-14T08:14:32;6.50;99.90
7542;DHT22;3812;50.006;8.230;2022-11-14T08:17:19;6.60;99.90
7542;DHT22;3812;50.006;8.230;2022-11-14T08:20:07;6.70;99.90
7542;DHT22;3812;50.006;8.230;2022-11-14T08:22:53;6.70;99.90
7542;DHT22;3812;50.006;8.230;2022-11-14T08:25:40;6.90;99.90
7542;DHT22;3812;50.006;8.230;2022-11-14T08:28:26;7.00;99.90
7542;DHT22;3812;50.006;8.230;2022-11-14T08:31:12;7.20;99.90
7542;DHT22;3812;50.006;8.230;2022-11-14T08:33:57;7.20;99.90
7542;DHT22;3812;50.006;8.230;2022-11-14T08:36:43;7.30;99.90
7542;DHT22;3812;50.006;8.230;2022-11-14T08:39:28;7.40;99.90
7542;DHT22;3812;50.006;8.230;2022-11-14T08:42:15;7.50;99.90
7542;DHT22;3812;50.006;8.230;2022-11-14T08:45:01;7.30;99.90
7542;DHT22;3812;50.006;8.230;2022-11-14T08:47:50;7.20;99.90
7542;DHT22;3812;50.006;8.230;2022-11-14T08:50:36;7.30;99.90
7542;DHT22;3812;50.006;8.230;2022-11-14T08:53:22;7.20;99.90
7542;DHT22;3812;50.006;8.230;2022-11-14T08:56:08;7.30;99.90
7542;DHT22;3812;50.006;8.230;2022-11-14T08:58:55;7.40;99.90
7542;DHT22;3812;50.006;8.230;2022-11-14T09:01:41;7.30;99.90
7542;DHT22;3812;50.006;8.230;2022-11-14T09:04:26;7.20;99.90
7542;DHT22;3812;50.006;8.230;2022-11-14T09:07:12;7.30;99.90
7542;DHT22;3812;50.006;8.230;2022-11-14T09:09:57;7.30;99.90
7542;DHT22;3812;50.006;8.230;2022-11-14T09:12:43;7.40;99.90
7542;DHT22;3812;50.006;8.230;2022-11-14T09:15:29;7.50;99.90
7542;DHT22;3812;50.006;8.230;2022-11-14T09:18:17;7.50;99.90
7542;DHT22;3812;50.006;8.230;2022-11-14T09:21:03;7.50;99.90
7542;DHT22;3812;50.006;8.230;2022-11-14T09:23:49;7.50;99.90
7542;DHT22;3812;50.006;8.230;2022-11-14T09:26:35;7.50;99.90
7542;DHT22;3812;50.006;8.230;2022-11-14T09:29:21;7.50;99.90
7542;DHT22;3812;50.006;8.230;2022-11-14T09:32:07;7.60;99.90
7542;DHT22;3812;50.006;8.230;2022-11-14T09:34:53;7.70;99.90
7542;DHT22;3812;50.006;8.230;2022-11-14T09:37:39;7.90;99.90
7542;DHT22;3812;50.006;8.230;2022-11-14T09:40:24;8.00;99.90
7542;DHT22;3812;50.006;8.230;2022-11-14T09:43:25;8.20;99.90
7542;DHT22;3812;50.006;8.230;2022-11-14T09:46:19;8.40;99.90
7542;DHT22;3812;50.006;8.230;2022-11-14T09:49:16;8.40;99.90
7542;DHT22;3812;50.006;8.230;2022-11-14T09:52:12;8.50;99.90
7542;DHT22;3812;50.006;8.230;2022-11-14T09:55:03;8.60;99.90
7542;DHT22;3812;50.006;8.230;2022-11-14T09:57:54;8.70;99.90
7542;DHT22;3812;50.006;8.230;2022-11-14T10:00:45;8.80;97.30
7542;DHT22;3812;50.006;8.230;2022-11-14T10:03:43;8.90;95.60
7542;DHT22;3812;50.006;8.230;2022-11-14T10:06:35;8.90;91.60
7542;DHT22;3812;50.006;8.230;2022-11-14T10:09:45;8.90;87.80
7542;DHT22;3812;50.006;8.230;2022-11-14T10:12:38;8.80;87.30
7542;DHT22;3812;50.006;8.230;2022-11-14T10:15:27;8.80;81.00
7542;DHT22;3812;50.006;8.230;2022-11-14T10:18:23;9.10;83.20
7542;DHT22;3812;50.006;8.230;2022-11-14T10:24:45;10.00;73.30
7542;DHT22;3812;50.006;8.230;2022-11-14T10:27:40;10.40;36.30
7542;DHT22;3812;50.006;8.230;2022-11-14T10:30:33;10.40;19.50
7542;DHT22;3812;50.006;8.230;2022-11-14T10:33:29;10.40;21.70
7542;DHT22;3812;50.006;8.230;2022-11-14T10:36:22;11.00;19.90
7542;DHT22;3812;50.006;8.230;2022-11-14T10:39:16;11.80;9.60
7542;DHT22;3812;50.006;8.230;2022-11-14T10:42:11;12.30;1.00
7542;DHT22;3812;50.006;8.230;2022-11-14T10:45:03;12.30;1.00
7542;DHT22;3812;50.006;8.230;2022-11-14T10:47:55;12.20;1.00
7542;DHT22;3812;50.006;8.230;2022-11-14T10:50:45;12.30;1.00
7542;DHT22;3812;50.006;8.230;2022-11-14T10:53:50;12.60;1.00
7542;DHT22;3812;50.006;8.230;2022-11-14T10:56:45;13.20;1.00
7542;DHT22;3812;50.006;8.230;2022-11-14T10:59:32;14.90;1.00
7542;DHT22;3812;50.006;8.230;2022-11-14T11:02:19;16.50;1.00
7542;DHT22;3812;50.006;8.230;2022-11-14T11:05:14;18.70;1.00
7542;DHT22;3812;50.006;8.230;2022-11-14T11:08:00;18.70;1.00
7542;DHT22;3812;50.006;8.230;2022-11-14T11:11:04;18.50;1.00
7542;DHT22;3812;50.006;8.230;2022-11-14T11:14:16;19.30;1.00
7542;DHT22;3812;50.006;8.230;2022-11-14T11:17:16;19.20;1.00
7542;DHT22;3812;50.006;8.230;2022-11-14T11:20:26;20.10;1.00
7542;DHT22;3812;50.006;8.230;2022-11-14T11:23:18;21.00;1.00
7542;DHT22;3812;50.006;8.230;2022-11-14T11:26:06;21.70;1.00
7542;DHT22;3812;50.006;8.230;2022-11-14T11:29:08;22.40;1.00
7542;DHT22;3812;50.006;8.230;2022-11-14T11:31:58;22.80;1.00
7542;DHT22;3812;50.006;8.230;2022-11-14T11:34:45;23.10;1.00
7542;DHT22;3812;50.006;8.230;2022-11-14T11:54:27;23.60;1.00
7542;DHT22;3812;50.006;8.230;2022-11-14T11:57:17;21.50;1.00
7542;DHT22;3812;50.006;8.230;2022-11-14T12:00:06;18.70;1.00
7542;DHT22;3812;50.006;8.230;2022-11-14T12:02:58;16.80;1.00
7542;DHT22;3812;50.006;8.230;2022-11-14T12:05:51;15.80;1.00
7542;DHT22;3812;50.006;8.230;2022-11-14T12:08:47;15.50;1.00
7542;DHT22;3812;50.006;8.230;2022-11-14T12:11:39;15.00;1.00
7542;DHT22;3812;50.006;8.230;2022-11-14T12:14:45;14.40;1.00
7542;DHT22;3812;50.006;8.230;2022-11-14T12:17:52;13.50;1.00
7542;DHT22;3812;50.006;8.230;2022-11-14T12:20:53;12.90;1.00
7542;DHT22;3812;50.006;8.230;2022-11-14T12:24:05;12.80;1.00
7542;DHT22;3812;50.006;8.230;2022-11-14T12:27:12;12.70;1.00
7542;DHT22;3812;50.006;8.230;2022-11-14T12:30:12;12.50;1.00
7542;DHT22;3812;50.006;8.230;2022-11-14T12:33:00;12.20;1.00
7542;DHT22;3812;50.006;8.230;2022-11-14T12:35:49;12.00;1.00
7542;DHT22;3812;50.006;8.230;2022-11-14T12:38:42;11.80;1.00
7542;DHT22;3812;50.006;8.230;2022-11-14T12:41:32;11.60;1.00
7542;DHT22;3812;50.006;8.230;2022-11-14T12:44:32;11.40;1.00
7542;DHT22;3812;50.006;8.230;2022-11-14T12:47:19;11.30;1.00
7542;DHT22;3812;50.006;8.230;2022-11-14T12:50:27;11.20;1.00
7542;DHT22;3812;50.006;8.230;2022-11-14T12:53:44;11.10;1.00
7542;DHT22;3812;50.006;8.230;2022-11-14T12:57:02;11.00;1.00
7542;DHT22;3812;50.006;8.230;2022-11-14T13:00:00;10.90;1.00
7542;DHT22;3812;50.006;8.230;2022-11-14T13:03:02;10.90;1.00
7542;DHT22;3812;50.006;8.230;2022-11-14T13:05:57;10.80;1.00
7542;DHT22;3812;50.006;8.230;2022-11-14T13:08:58;10.70;1.00
7542;DHT22;3812;50.006;8.230;2022-11-14T13:11:49;10.70;1.00
7542;DHT22;3812;50.006;8.230;2022-11-14T13:14:55;10.50;1.00
7542;DHT22;3812;50.006;8.230;2022-11-14T13:18:03;10.50;1.00
7542;DHT22;3812;50.006;8.230;2022-11-14T13:21:18;10.50;1.00
7542;DHT22;3812;50.006;8.230;2022-11-14T13:24:22;10.50;1.00
7542;DHT22;3812;50.006;8.230;2022-11-14T13:27:25;10.50;1.00
7542;DHT22;3812;50.006;8.230;2022-11-14T13:30:12;10.50;1.00
7542;DHT22;3812;50.006;8.230;2022-11-14T13:32:57;10.50;1.00
7542;DHT22;3812;50.006;8.230;2022-11-14T13:35:55;10.60;1.00
7542;DHT22;3812;50.006;8.230;2022-11-14T13:39:03;10.50;1.00
7542;DHT22;3812;50.006;8.230;2022-11-14T13:42:11;10.60;1.00
7542;DHT22;3812;50.006;8.230;2022-11-14T13:45:16;10.60;1.00
7542;DHT22;3812;50.006;8.230;2022-11-14T13:48:44;10.50;1.00
7542;DHT22;3812;50.006;8.230;2022-11-14T13:51:34;10.60;1.00
7542;DHT22;3812;50.006;8.230;2022-11-14T13:54:20;10.60;1.00
7542;DHT22;3812;50.006;8.230;2022-11-14T13:57:12;10.60;1.00
7542;DHT22;3812;50.006;8.230;2022-11-14T14:00:04;10.50;1.00
7542;DHT22;3812;50.006;8.230;2022-11-14T14:03:13;10.60;1.00
7542;DHT22;3812;50.006;8.230;2022-11-14T14:06:18;10.90;1.00
7542;DHT22;3812;50.006;8.230;2022-11-14T14:09:14;11.20;1.00
7542;DHT22;3812;50.006;8.230;2022-11-14T14:12:22;11.30;1.00
7542;DHT22;3812;50.006;8.230;2022-11-14T14:15:18;11.30;1.00
7542;DHT22;3812;50.006;8.230;2022-11-14T14:18:11;11.20;1.00
7542;DHT22;3812;50.006;8.230;2022-11-14T14:21:04;11.20;1.00
7542;DHT22;3812;50.006;8.230;2022-11-14T14:23:58;11.10;1.00
7542;DHT22;3812;50.006;8.230;2022-11-14T14:26:55;11.00;1.00
7542;DHT22;3812;50.006;8.230;2022-11-14T14:29:50;11.00;1.00
7542;DHT22;3812;50.006;8.230;2022-11-14T14:32:37;10.80;1.00
7542;DHT22;3812;50.006;8.230;2022-11-14T14:35:26;10.80;1.00
7542;DHT22;3812;50.006;8.230;2022-11-14T14:38:20;10.70;1.00
7542;DHT22;3812;50.006;8.230;2022-11-14T14:41:06;10.60;1.00
7542;DHT22;3812;50.006;8.230;2022-11-14T14:43:53;10.60;1.00
7542;DHT22;3812;50.006;8.230;2022-11-14T14:46:39;10.50;1.00
7542;DHT22;3812;50.006;8.230;2022-11-14T14:49:28;10.50;1.00
7542;DHT22;3812;50.006;8.230;2022-11-14T14:52:27;10.40;1.00
7542;DHT22;3812;50.006;8.230;2022-11-14T14:55:19;10.40;1.00
7542;DHT22;3812;50.006;8.230;2022-11-14T14:58:21;10.30;1.00
7542;DHT22;3812;50.006;8.230;2022-11-14T15:01:11;10.20;1.00
7542;DHT22;3812;50.006;8.230;2022-11-14T15:04:06;10.20;1.00
7542;DHT22;3812;50.006;8.230;2022-11-14T15:06:52;10.20;1.00
7542;DHT22;3812;50.006;8.230;2022-11-14T15:09:51;10.20;1.00
7542;DHT22;3812;50.006;8.230;2022-11-14T15:12:39;10.20;1.00
7542;DHT22;3812;50.006;8.230;2022-11-14T15:15:26;10.20;1.00
7542;DHT22;3812;50.006;8.230;2022-11-14T15:18:18;10.10;1.00
7542;DHT22;3812;50.006;8.230;2022-11-14T15:21:09;10.10;1.00
7542;DHT22;3812;50.006;8.230;2022-11-14T15:24:00;10.10;1.00
7542;DHT22;3812;50.006;8.230;2022-11-14T15:26:49;10.10;1.00
7542;DHT22;3812;50.006;8.230;2022-11-14T15:29:35;10.10;1.00
7542;DHT22;3812;50.006;8.230;2022-11-14T15:32:29;10.10;1.00
7542;DHT22;3812;50.006;8.230;2022-11-14T15:35:25;10.10;1.00
7542;DHT22;3812;50.006;8.230;2022-11-14T15:38:19;10.00;1.00
7542;DHT22;3812;50.006;8.230;2022-11-14T15:41:14;10.10;1.00
7542;DHT22;3812;50.006;8.230;2022-11-14T15:44:01;10.10;1.00
7542;DHT22;3812;50.006;8.230;2022-11-14T15:46:49;10.20;1.00
7542;DHT22;3812;50.006;8.230;2022-11-14T15:49:35;10.20;1.00
7542;DHT22;3812;50.006;8.230;2022-11-14T15:52:24;10.20;1.00
7542;DHT22;3812;50.006;8.230;2022-11-14T15:55:14;10.20;1.00
7542;DHT22;3812;50.006;8.230;2022-11-14T15:58:00;10.20;1.00
7542;DHT22;3812;50.006;8.230;2022-11-14T16:00:49;10.10;1.00
7542;DHT22;3812;50.006;8.230;2022-11-14T16:03:35;10.10;1.00
7542;DHT22;3812;50.006;8.230;2022-11-14T16:06:21;10.10;1.00
7542;DHT22;3812;50.006;8.230;2022-11-14T16:09:15;10.20;1.00
7542;DHT22;3812;50.006;8.230;2022-11-14T16:12:00;10.20;1.00
7542;DHT22;3812;50.006;8.230;2022-11-14T16:14:46;10.10;1.00
7542;DHT22;3812;50.006;8.230;2022-11-14T16:17:36;10.10;1.00
7542;DHT22;3812;50.006;8.230;2022-11-14T16:20:23;10.10;1.00
7542;DHT22;3812;50.006;8.230;2022-11-14T16:23:10;10.10;1.00
7542;DHT22;3812;50.006;8.230;2022-11-14T16:25:56;10.00;1.00
7542;DHT22;3812;50.006;8.230;2022-11-14T16:28:42;10.00;1.00
7542;DHT22;3812;50.006;8.230;2022-11-14T16:31:27;10.00;1.00
7542;DHT22;3812;50.006;8.230;2022-11-14T16:34:18;10.00;1.00
7542;DHT22;3812;50.006;8.230;2022-11-14T16:37:04;10.00;1.00
7542;DHT22;3812;50.006;8.230;2022-11-14T16:39:50;9.90;1.00
7542;DHT22;3812;50.006;8.230;2022-11-14T16:42:36;9.90;1.00
7542;DHT22;3812;50.006;8.230;2022-11-14T16:45:22;9.90;1.00
7542;DHT22;3812;50.006;8.230;2022-11-14T16:48:08;9.90;1.00
7542;DHT22;3812;50.006;8.230;2022-11-14T16:50:59;9.90;1.00
7542;DHT22;3812;50.006;8.230;2022-11-14T16:53:45;9.90;1.00
7542;DHT22;3812;50.006;8.230;2022-11-14T16:56:30;9.90;1.00
7542;DHT22;3812;50.006;8.230;2022-11-14T16:59:16;9.90;1.00
7542;DHT22;3812;50.006;8.230;2022-11-14T17:02:02;9.90;1.00
7542;DHT22;3812;50.006;8.230;2022-11-14T17:04:47;9.90;1.00
7542;DHT22;3812;50.006;8.230;2022-11-14T17:07:35;9.90;1.00
7542;DHT22;3812;50.006;8.230;2022-11-14T17:10:20;9.90;1.00
7542;DHT22;3812;50.006;8.230;2022-11-14T17:13:06;9.90;1.00
7542;DHT22;3812;50.006;8.230;2022-11-14T17:15:51;9.80;1.00
7542;DHT22;3812;50.006;8.230;2022-11-14T17:18:37;9.90;1.00
7542;DHT22;3812;50.006;8.230;2022-11-14T17:21:23;9.90;1.00
7542;DHT22;3812;50.006;8.230;2022-11-14T17:24:11;9.90;1.00
7542;DHT22;3812;50.006;8.230;2022-11-14T17:26:57;9.90;1.00
7542;DHT22;3812;50.006;8.230;2022-11-14T17:29:43;9.80;1.00
7542;DHT22;3812;50.006;8.230;2022-11-14T17:32:30;9.80;1.00
7542;DHT22;3812;50.006;8.230;2022-11-14T17:35:16;9.80;1.00
7542;DHT22;3812;50.006;8.230;2022-11-14T17:38:01;9.80;1.00
7542;DHT22;3812;50.006;8.230;2022-11-14T17:40:48;9.80;1.00
7542;DHT22;3812;50.006;8.230;2022-11-14T17:43:34;9.90;1.00
7542;DHT22;3812;50.006;8.230;2022-11-14T17:46:20;9.80;2.80
7542;DHT22;3812;50.006;8.230;2022-11-14T17:49:05;9.80;1.00
7542;DHT22;3812;50.006;8.230;2022-11-14T17:51:51;9.80;2.60
7542;DHT22;3812;50.006;8.230;2022-11-14T17:54:37;9.80;4.20
7542;DHT22;3812;50.006;8.230;2022-11-14T17:57:24;9.80;6.40
7542;DHT22;3812;50.006;8.230;2022-11-14T18:00:11;9.80;3.90
7542;DHT22;3812;50.006;8.230;2022-11-14T18:02:57;9.80;4.20
7542;DHT22;3812;50.006;8.230;2022-11-14T18:05:43;9.90;4.90
7542;DHT22;3812;50.006;8.230;2022-11-14T18:08:28;9.80;8.70
7542;DHT22;3812;50.006;8.230;2022-11-14T18:11:15;9.90;6.70
7542;DHT22;3812;50.006;8.230;2022-11-14T18:14:02;9.90;5.90
7542;DHT22;3812;50.006;8.230;2022-11-14T18:16:48;9.90;6.30
7542;DHT22;3812;50.006;8.230;2022-11-14T18:19:33;9.80;9.20
7542;DHT22;3812;50.006;8.230;2022-11-14T18:22:20;9.80;8.80
7542;DHT22;3812;50.006;8.230;2022-11-14T18:25:06;9.80;10.70
7542;DHT22;3812;50.006;8.230;2022-11-14T18:27:52;9.80;11.10
7542;DHT22;3812;50.006;8.230;2022-11-14T18:30:38;9.80;10.90
7542;DHT22;3812;50.006;8.230;2022-11-14T18:33:25;9.80;12.00
7542;DHT22;3812;50.006;8.230;2022-11-14T18:36:11;9.80;12.80
7542;DHT22;3812;50.006;8.230;2022-11-14T18:38:56;9.80;12.50
7542;DHT22;3812;50.006;8.230;2022-11-14T18:41:42;9.70;16.30
7542;DHT22;3812;50.006;8.230;2022-11-14T18:44:27;9.70;17.20
7542;DHT22;3812;50.006;8.230;2022-11-14T18:47:14;9.70;16.70
7542;DHT22;3812;50.006;8.230;2022-11-14T18:50:00;9.80;17.80
7542;DHT22;3812;50.006;8.230;2022-11-14T18:52:47;9.70;17.40
7542;DHT22;3812;50.006;8.230;2022-11-14T18:55:33;9.70;20.40
7542;DHT22;3812;50.006;8.230;2022-11-14T18:58:22;9.70;21.70
7542;DHT22;3812;50.006;8.230;2022-11-14T19:01:09;9.60;25.30
7542;DHT22;3812;50.006;8.230;2022-11-14T19:03:58;9.60;22.60
7542;DHT22;3812;50.006;8.230;2022-11-14T19:06:44;9.60;32.50